sensor_id;sensor_type;location;lat;lon;timestamp;temperature;humidity
22321;DHT22;11328;53.928;18.522;2024-03-17T00:00:32;4.90;99.90
22321;DHT22;11328;53.928;18.522;2024-03-17T00:02:58;5.00;99.90
22321;DHT22;11328;53.928;18.522;2024-03-17T00:05:24;5.00;99.90
22321;DHT22;11328;53.928;18.522;2024-03-17T00:07:51;5.00;99.90
22321;DHT22;11328;53.928;18.522;2024-03-17T00:10:17;5.00;99.90
22321;DHT22;11328;53.928;18.522;2024-03-17T00:12:43;5.00;99.90
22321;DHT22;11328;53.928;18.522;2024-03-17T00:15:09;5.10;99.90
22321;DHT22;11328;53.928;18.522;2024-03-17T00:17:36;5.00;99.90
22321;DHT22;11328;53.928;18.522;2024-03-17T00:20:03;5.00;99.90
22321;DHT22;11328;53.928;18.522;2024-03-17T00:22:37;5.10;99.90
22321;DHT22;11328;53.928;18.522;2024-03-17T00:25:07;5.10;99.90
22321;DHT22;11328;53.928;18.522;2024-03-17T00:27:34;5.10;99.90
22321;DHT22;11328;53.928;18.522;2024-03-17T00:30:06;5.00;99.90
22321;DHT22;11328;53.928;18.522;2024-03-17T00:32:41;5.10;99.90
22321;DHT22;11328;53.928;18.522;2024-03-17T00:35:09;5.10;99.90
22321;DHT22;11328;53.928;18.522;2024-03-17T00:37:39;5.20;99.90
22321;DHT22;11328;53.928;18.522;2024-03-17T00:40:06;5.20;99.90
22321;DHT22;11328;53.928;18.522;2024-03-17T00:42:32;5.20;99.90
22321;DHT22;11328;53.928;18.522;2024-03-17T00:44:59;5.30;99.90
22321;DHT22;11328;53.928;18.522;2024-03-17T00:47:28;5.40;99.90
22321;DHT22;11328;53.928;18.522;2024-03-17T00:49:55;5.40;99.90
22321;DHT22;11328;53.928;18.522;2024-03-17T00:52:21;5.40;99.90
22321;DHT22;11328;53.928;18.522;2024-03-17T00:54:47;5.40;99.90
22321;DHT22;11328;53.928;18.522;2024-03-17T00:57:14;5.40;99.90
22321;DHT22;11328;53.928;18.522;2024-03-17T00:59:42;5.40;99.90
22321;DHT22;11328;53.928;18.522;2024-03-17T01:02:11;5.50;99.90
22321;DHT22;11328;53.928;18.522;2024-03-17T01:04:42;5.50;99.90
22321;DHT22;11328;53.928;18.522;2024-03-17T01:07:09;5.50;99.90
22321;DHT22;11328;53.928;18.522;2024-03-17T01:09:36;5.60;99.90
22321;DHT22;11328;53.928;18.522;2024-03-17T01:12:03;5.60;99.90
22321;DHT22;11328;53.928;18.522;2024-03-17T01:14:30;5.60;99.90
22321;DHT22;11328;53.928;18.522;2024-03-17T01:16:57;5.70;99.90
22321;DHT22;11328;53.928;18.522;2024-03-17T01:19:24;5.70;99.90
22321;DHT22;11328;53.928;18.522;2024-03-17T01:21:51;5.50;99.90
22321;DHT22;11328;53.928;18.522;2024-03-17T01:24:18;5.50;99.90
22321;DHT22;11328;53.928;18.522;2024-03-17T01:26:44;5.40;99.90
22321;DHT22;11328;53.928;18.522;2024-03-17T01:29:11;5.40;99.90
22321;DHT22;11328;53.928;18.522;2024-03-17T01:31:37;5.40;99.90
22321;DHT22;11328;53.928;18.522;2024-03-17T01:34:03;5.30;99.90
22321;DHT22;11328;53.928;18.522;2024-03-17T01:36:29;5.40;99.90
22321;DHT22;11328;53.928;18.522;2024-03-17T01:38:56;5.30;99.90
22321;DHT22;11328;53.928;18.522;2024-03-17T01:41:22;5.40;99.90
22321;DHT22;11328;53.928;18.522;2024-03-17T01:43:49;5.40;99.90
22321;DHT22;11328;53.928;18.522;2024-03-17T01:46:17;5.50;99.90
22321;DHT22;11328;53.928;18.522;2024-03-17T01:48:44;5.50;99.90
22321;DHT22;11328;53.928;18.522;2024-03-17T01:51:13;5.40;99.90
22321;DHT22;11328;53.928;18.522;2024-03-17T01:53:42;5.40;99.90
22321;DHT22;11328;53.928;18.522;2024-03-17T01:56:10;5.30;99.90
22321;DHT22;11328;53.928;18.522;2024-03-17T01:58:37;5.20;99.90
22321;DHT22;11328;53.928;18.522;2024-03-17T02:01:04;5.20;99.90
22321;DHT22;11328;53.928;18.522;2024-03-17T02:03:30;5.20;99.90
22321;DHT22;11328;53.928;18.522;2024-03-17T02:05:58;5.20;99.90
22321;DHT22;11328;53.928;18.522;2024-03-17T02:08:25;5.30;99.90
22321;DHT22;11328;53.928;18.522;2024-03-17T02:10:54;5.20;99.90
22321;DHT22;11328;53.928;18.522;2024-03-17T02:13:21;5.10;99.90
22321;DHT22;11328;53.928;18.522;2024-03-17T02:15:48;5.10;99.90
22321;DHT22;11328;53.928;18.522;2024-03-17T02:18:14;5.10;99.90
22321;DHT22;11328;53.928;18.522;2024-03-17T02:20:41;5.00;99.90
22321;DHT22;11328;53.928;18.522;2024-03-17T02:23:27;5.00;99.90
22321;DHT22;11328;53.928;18.522;2024-03-17T02:25:53;4.90;99.90
22321;DHT22;11328;53.928;18.522;2024-03-17T02:28:19;4.80;99.90
22321;DHT22;11328;53.928;18.522;2024-03-17T02:30:46;4.80;99.90
22321;DHT22;11328;53.928;18.522;2024-03-17T02:33:12;4.70;99.90
22321;DHT22;11328;53.928;18.522;2024-03-17T02:35:38;4.60;99.90
22321;DHT22;11328;53.928;18.522;2024-03-17T02:38:05;4.50;99.90
22321;DHT22;11328;53.928;18.522;2024-03-17T02:40:33;4.50;99.90
22321;DHT22;11328;53.928;18.522;2024-03-17T02:42:59;4.40;99.90
22321;DHT22;11328;53.928;18.522;2024-03-17T02:45:25;4.40;99.90
22321;DHT22;11328;53.928;18.522;2024-03-17T02:47:52;4.50;99.90
22321;DHT22;11328;53.928;18.522;2024-03-17T02:50:18;4.50;99.90
22321;DHT22;11328;53.928;18.522;2024-03-17T02:52:44;4.60;99.90
22321;DHT22;11328;53.928;18.522;2024-03-17T02:55:10;4.70;99.90
22321;DHT22;11328;53.928;18.522;2024-03-17T02:57:36;4.70;99.90
22321;DHT22;11328;53.928;18.522;2024-03-17T03:00:02;4.70;99.90
22321;DHT22;11328;53.928;18.522;2024-03-17T03:02:34;4.60;99.90
22321;DHT22;11328;53.928;18.522;2024-03-17T03:05:00;4.60;99.90
22321;DHT22;11328;53.928;18.522;2024-03-17T03:07:26;4.40;99.90
22321;DHT22;11328;53.928;18.522;2024-03-17T03:09:53;4.40;99.90
22321;DHT22;11328;53.928;18.522;2024-03-17T03:12:19;4.40;99.90
22321;DHT22;11328;53.928;18.522;2024-03-17T03:14:45;4.40;99.90
22321;DHT22;11328;53.928;18.522;2024-03-17T03:17:13;4.40;99.90
22321;DHT22;11328;53.928;18.522;2024-03-17T03:19:39;4.30;99.90
22321;DHT22;11328;53.928;18.522;2024-03-17T03:22:05;4.30;99.90
22321;DHT22;11328;53.928;18.522;2024-03-17T03:24:32;4.30;99.90
22321;DHT22;11328;53.928;18.522;2024-03-17T03:26:58;4.30;99.90
22321;DHT22;11328;53.928;18.522;2024-03-17T03:29:24;4.30;99.90
22321;DHT22;11328;53.928;18.522;2024-03-17T03:31:50;4.30;99.90
22321;DHT22;11328;53.928;18.522;2024-03-17T03:34:16;4.10;99.90
22321;DHT22;11328;53.928;18.522;2024-03-17T03:36:43;4.20;99.90
22321;DHT22;11328;53.928;18.522;2024-03-17T03:39:09;4.20;99.90
22321;DHT22;11328;53.928;18.522;2024-03-17T03:41:37;4.20;99.90
22321;DHT22;11328;53.928;18.522;2024-03-17T03:44:03;4.00;99.90
22321;DHT22;11328;53.928;18.522;2024-03-17T03:46:30;4.10;99.90
22321;DHT22;11328;53.928;18.522;2024-03-17T03:48:56;4.20;99.90
22321;DHT22;11328;53.928;18.522;2024-03-17T03:51:22;4.20;99.90
22321;DHT22;11328;53.928;18.522;2024-03-17T03:53:50;4.10;99.90
22321;DHT22;11328;53.928;18.522;2024-03-17T03:56:17;4.00;99.90
22321;DHT22;11328;53.928;18.522;2024-03-17T03:58:44;4.10;99.90
22321;DHT22;11328;53.928;18.522;2024-03-17T04:01:12;4.20;99.90
22321;DHT22;11328;53.928;18.522;2024-03-17T04:03:38;4.20;99.90
22321;DHT22;11328;53.928;18.522;2024-03-17T04:06:06;4.30;99.90
22321;DHT22;11328;53.928;18.522;2024-03-17T04:08:34;4.20;99.90
22321;DHT22;11328;53.928;18.522;2024-03-17T04:11:01;4.10;99.90
22321;DHT22;11328;53.928;18.522;2024-03-17T04:13:29;4.00;99.90
22321;DHT22;11328;53.928;18.522;2024-03-17T04:16:00;4.00;99.90
22321;DHT22;11328;53.928;18.522;2024-03-17T04:18:29;4.00;99.90
22321;DHT22;11328;53.928;18.522;2024-03-17T04:20:57;3.90;99.90
22321;DHT22;11328;53.928;18.522;2024-03-17T04:23:26;3.80;99.90
22321;DHT22;11328;53.928;18.522;2024-03-17T04:25:53;4.00;99.90
22321;DHT22;11328;53.928;18.522;2024-03-17T04:28:19;4.00;99.90
22321;DHT22;11328;53.928;18.522;2024-03-17T04:30:45;4.00;99.90
22321;DHT22;11328;53.928;18.522;2024-03-17T04:33:12;4.00;99.90
22321;DHT22;11328;53.928;18.522;2024-03-17T04:35:40;4.00;99.90
22321;DHT22;11328;53.928;18.522;2024-03-17T04:38:07;4.00;99.90
22321;DHT22;11328;53.928;18.522;2024-03-17T04:40:33;4.10;99.90
22321;DHT22;11328;53.928;18.522;2024-03-17T04:43:00;4.10;99.90
22321;DHT22;11328;53.928;18.522;2024-03-17T04:45:26;4.10;99.90
22321;DHT22;11328;53.928;18.522;2024-03-17T04:47:53;4.10;99.90
22321;DHT22;11328;53.928;18.522;2024-03-17T04:50:19;4.00;99.90
22321;DHT22;11328;53.928;18.522;2024-03-17T04:52:47;4.00;99.90
22321;DHT22;11328;53.928;18.522;2024-03-17T04:55:13;3.80;99.90
22321;DHT22;11328;53.928;18.522;2024-03-17T04:57:39;3.90;99.90
22321;DHT22;11328;53.928;18.522;2024-03-17T05:00:05;3.90;99.90
22321;DHT22;11328;53.928;18.522;2024-03-17T05:02:35;3.80;99.90
22321;DHT22;11328;53.928;18.522;2024-03-17T05:05:01;3.90;99.90
22321;DHT22;11328;53.928;18.522;2024-03-17T05:07:28;3.90;99.90
22321;DHT22;11328;53.928;18.522;2024-03-17T05:09:54;3.90;99.90
22321;DHT22;11328;53.928;18.522;2024-03-17T05:12:20;3.90;99.90
22321;DHT22;11328;53.928;18.522;2024-03-17T05:14:46;3.90;99.90
22321;DHT22;11328;53.928;18.522;2024-03-17T05:17:12;3.90;99.90
22321;DHT22;11328;53.928;18.522;2024-03-17T05:19:38;3.80;99.90
22321;DHT22;11328;53.928;18.522;2024-03-17T05:22:04;3.80;99.90
22321;DHT22;11328;53.928;18.522;2024-03-17T05:24:31;3.90;99.90
22321;DHT22;11328;53.928;18.522;2024-03-17T05:26:57;3.90;99.90
22321;DHT22;11328;53.928;18.522;2024-03-17T05:29:23;3.90;99.90
22321;DHT22;11328;53.928;18.522;2024-03-17T05:31:52;3.90;99.90
22321;DHT22;11328;53.928;18.522;2024-03-17T05:34:18;3.90;99.90
22321;DHT22;11328;53.928;18.522;2024-03-17T05:36:44;3.90;99.90
22321;DHT22;11328;53.928;18.522;2024-03-17T05:39:12;3.90;99.90
22321;DHT22;11328;53.928;18.522;2024-03-17T05:41:39;3.80;99.90
22321;DHT22;11328;53.928;18.522;2024-03-17T05:44:07;3.90;99.90
22321;DHT22;11328;53.928;18.522;2024-03-17T05:46:33;3.90;99.90
22321;DHT22;11328;53.928;18.522;2024-03-17T05:48:59;3.90;99.90
22321;DHT22;11328;53.928;18.522;2024-03-17T05:51:25;4.00;99.90
22321;DHT22;11328;53.928;18.522;2024-03-17T05:53:53;3.90;99.90
22321;DHT22;11328;53.928;18.522;2024-03-17T05:56:21;3.90;99.90
22321;DHT22;11328;53.928;18.522;2024-03-17T05:58:48;4.00;99.90
22321;DHT22;11328;53.928;18.522;2024-03-17T06:01:14;3.90;99.90
22321;DHT22;11328;53.928;18.522;2024-03-17T06:03:41;4.00;99.90
22321;DHT22;11328;53.928;18.522;2024-03-17T06:06:07;4.00;99.90
22321;DHT22;11328;53.928;18.522;2024-03-17T06:08:33;3.90;99.90
22321;DHT22;11328;53.928;18.522;2024-03-17T06:10:59;3.70;99.90
22321;DHT22;11328;53.928;18.522;2024-03-17T06:13:28;3.80;99.90
22321;DHT22;11328;53.928;18.522;2024-03-17T06:15:55;3.70;99.90
22321;DHT22;11328;53.928;18.522;2024-03-17T06:18:26;3.90;99.90
22321;DHT22;11328;53.928;18.522;2024-03-17T06:20:53;3.80;99.90
22321;DHT22;11328;53.928;18.522;2024-03-17T06:23:19;3.80;99.90
22321;DHT22;11328;53.928;18.522;2024-03-17T06:25:47;3.80;99.90
22321;DHT22;11328;53.928;18.522;2024-03-17T06:28:15;3.70;99.90
22321;DHT22;11328;53.928;18.522;2024-03-17T06:30:43;3.90;99.90
22321;DHT22;11328;53.928;18.522;2024-03-17T06:33:13;3.80;99.90
22321;DHT22;11328;53.928;18.522;2024-03-17T06:35:40;3.90;99.90
22321;DHT22;11328;53.928;18.522;2024-03-17T06:38:07;3.80;99.90
22321;DHT22;11328;53.928;18.522;2024-03-17T06:40:37;3.70;99.90
22321;DHT22;11328;53.928;18.522;2024-03-17T06:43:04;3.90;99.90
22321;DHT22;11328;53.928;18.522;2024-03-17T06:45:32;3.90;99.90
22321;DHT22;11328;53.928;18.522;2024-03-17T06:47:59;4.10;99.90
22321;DHT22;11328;53.928;18.522;2024-03-17T06:50:25;4.00;99.90
22321;DHT22;11328;53.928;18.522;2024-03-17T06:52:52;4.10;99.90
22321;DHT22;11328;53.928;18.522;2024-03-17T06:55:19;4.10;99.90
22321;DHT22;11328;53.928;18.522;2024-03-17T06:57:47;4.10;99.90
22321;DHT22;11328;53.928;18.522;2024-03-17T07:00:14;4.20;99.90
22321;DHT22;11328;53.928;18.522;2024-03-17T07:02:43;4.20;99.90
22321;DHT22;11328;53.928;18.522;2024-03-17T07:05:14;4.20;99.90
22321;DHT22;11328;53.928;18.522;2024-03-17T07:07:44;4.40;99.90
22321;DHT22;11328;53.928;18.522;2024-03-17T07:10:11;4.30;99.90
22321;DHT22;11328;53.928;18.522;2024-03-17T07:12:38;4.30;99.90
22321;DHT22;11328;53.928;18.522;2024-03-17T07:15:06;4.40;99.90
22321;DHT22;11328;53.928;18.522;2024-03-17T07:17:33;4.30;99.90
22321;DHT22;11328;53.928;18.522;2024-03-17T07:19:59;4.40;99.90
22321;DHT22;11328;53.928;18.522;2024-03-17T07:22:25;4.40;99.90
22321;DHT22;11328;53.928;18.522;2024-03-17T07:24:55;4.40;99.90
22321;DHT22;11328;53.928;18.522;2024-03-17T07:27:29;4.50;99.90
22321;DHT22;11328;53.928;18.522;2024-03-17T07:29:55;4.40;99.90
22321;DHT22;11328;53.928;18.522;2024-03-17T07:32:22;4.30;99.90
22321;DHT22;11328;53.928;18.522;2024-03-17T07:34:52;4.30;99.90
22321;DHT22;11328;53.928;18.522;2024-03-17T07:37:18;4.40;99.90
22321;DHT22;11328;53.928;18.522;2024-03-17T07:39:44;4.40;99.90
22321;DHT22;11328;53.928;18.522;2024-03-17T07:42:13;4.50;99.90
22321;DHT22;11328;53.928;18.522;2024-03-17T07:44:39;4.50;99.90
22321;DHT22;11328;53.928;18.522;2024-03-17T07:47:09;4.60;99.90
22321;DHT22;11328;53.928;18.522;2024-03-17T07:49:35;4.60;99.90
22321;DHT22;11328;53.928;18.522;2024-03-17T07:52:02;4.60;99.90
22321;DHT22;11328;53.928;18.522;2024-03-17T07:54:28;4.60;99.90
22321;DHT22;11328;53.928;18.522;2024-03-17T07:56:54;4.70;99.90
22321;DHT22;11328;53.928;18.522;2024-03-17T07:59:20;4.90;99.90
22321;DHT22;11328;53.928;18.522;2024-03-17T08:01:47;5.20;99.90
22321;DHT22;11328;53.928;18.522;2024-03-17T08:04:13;5.20;99.90
22321;DHT22;11328;53.928;18.522;2024-03-17T08:06:39;5.20;99.90
22321;DHT22;11328;53.928;18.522;2024-03-17T08:09:07;5.20;99.90
22321;DHT22;11328;53.928;18.522;2024-03-17T08:11:35;5.30;99.90
22321;DHT22;11328;53.928;18.522;2024-03-17T08:14:07;5.30;99.90
22321;DHT22;11328;53.928;18.522;2024-03-17T08:16:34;5.30;99.90
22321;DHT22;11328;53.928;18.522;2024-03-17T08:19:00;5.20;99.90
22321;DHT22;11328;53.928;18.522;2024-03-17T08:21:26;5.10;99.90
22321;DHT22;11328;53.928;18.522;2024-03-17T08:23:55;5.00;99.90
22321;DHT22;11328;53.928;18.522;2024-03-17T08:26:21;4.90;99.90
22321;DHT22;11328;53.928;18.522;2024-03-17T08:28:47;4.90;99.90
22321;DHT22;11328;53.928;18.522;2024-03-17T08:31:15;4.80;99.90
22321;DHT22;11328;53.928;18.522;2024-03-17T08:33:41;4.60;99.90
22321;DHT22;11328;53.928;18.522;2024-03-17T08:36:08;4.50;99.90
22321;DHT22;11328;53.928;18.522;2024-03-17T08:38:36;4.60;99.90
22321;DHT22;11328;53.928;18.522;2024-03-17T08:41:08;4.80;99.90
22321;DHT22;11328;53.928;18.522;2024-03-17T08:43:36;4.80;99.90
22321;DHT22;11328;53.928;18.522;2024-03-17T08:46:05;4.80;99.90
22321;DHT22;11328;53.928;18.522;2024-03-17T08:48:37;4.90;99.90
22321;DHT22;11328;53.928;18.522;2024-03-17T08:51:05;4.80;99.90
22321;DHT22;11328;53.928;18.522;2024-03-17T08:53:32;4.70;99.90
22321;DHT22;11328;53.928;18.522;2024-03-17T08:56:02;4.60;99.90
22321;DHT22;11328;53.928;18.522;2024-03-17T08:58:28;4.60;99.90
22321;DHT22;11328;53.928;18.522;2024-03-17T09:00:55;4.70;99.90
22321;DHT22;11328;53.928;18.522;2024-03-17T09:03:22;4.60;99.90
22321;DHT22;11328;53.928;18.522;2024-03-17T09:05:49;4.50;99.90
22321;DHT22;11328;53.928;18.522;2024-03-17T09:08:23;4.60;99.90
22321;DHT22;11328;53.928;18.522;2024-03-17T09:10:52;4.70;99.90
22321;DHT22;11328;53.928;18.522;2024-03-17T09:13:22;4.50;99.90
22321;DHT22;11328;53.928;18.522;2024-03-17T09:15:54;4.50;99.90
22321;DHT22;11328;53.928;18.522;2024-03-17T09:18:26;4.40;99.90
22321;DHT22;11328;53.928;18.522;2024-03-17T09:23:29;4.50;99.90
22321;DHT22;11328;53.928;18.522;2024-03-17T09:26:03;4.60;99.90
22321;DHT22;11328;53.928;18.522;2024-03-17T09:28:31;4.70;99.90
22321;DHT22;11328;53.928;18.522;2024-03-17T09:30:59;4.60;99.90
22321;DHT22;11328;53.928;18.522;2024-03-17T09:33:27;4.90;99.90
22321;DHT22;11328;53.928;18.522;2024-03-17T09:36:09;4.80;99.90
22321;DHT22;11328;53.928;18.522;2024-03-17T09:38:39;5.00;99.90
22321;DHT22;11328;53.928;18.522;2024-03-17T09:41:21;4.90;99.90
22321;DHT22;11328;53.928;18.522;2024-03-17T09:43:53;5.00;99.90
22321;DHT22;11328;53.928;18.522;2024-03-17T09:46:20;5.00;99.90
22321;DHT22;11328;53.928;18.522;2024-03-17T09:48:49;4.80;99.90
22321;DHT22;11328;53.928;18.522;2024-03-17T09:51:22;4.60;99.90
22321;DHT22;11328;53.928;18.522;2024-03-17T09:53:49;4.60;99.90
22321;DHT22;11328;53.928;18.522;2024-03-17T09:56:18;4.70;99.90
22321;DHT22;11328;53.928;18.522;2024-03-17T09:58:46;4.80;99.90
22321;DHT22;11328;53.928;18.522;2024-03-17T10:01:14;4.80;99.90
22321;DHT22;11328;53.928;18.522;2024-03-17T10:06:23;4.80;99.90
22321;DHT22;11328;53.928;18.522;2024-03-17T10:08:55;4.80;99.90
22321;DHT22;11328;53.928;18.522;2024-03-17T10:11:35;4.60;99.90
22321;DHT22;11328;53.928;18.522;2024-03-17T10:14:04;4.40;99.90
22321;DHT22;11328;53.928;18.522;2024-03-17T10:16:38;4.40;99.90
22321;DHT22;11328;53.928;18.522;2024-03-17T10:19:24;4.40;99.90
22321;DHT22;11328;53.928;18.522;2024-03-17T10:21:58;4.30;99.90
22321;DHT22;11328;53.928;18.522;2024-03-17T10:24:27;4.60;99.90
22321;DHT22;11328;53.928;18.522;2024-03-17T10:26:56;4.60;99.90
22321;DHT22;11328;53.928;18.522;2024-03-17T10:32:18;4.70;99.90
22321;DHT22;11328;53.928;18.522;2024-03-17T10:34:50;5.00;99.90
22321;DHT22;11328;53.928;18.522;2024-03-17T10:37:18;5.30;99.90
22321;DHT22;11328;53.928;18.522;2024-03-17T10:39:51;5.40;99.90
22321;DHT22;11328;53.928;18.522;2024-03-17T10:42:25;5.30;99.90
22321;DHT22;11328;53.928;18.522;2024-03-17T10:44:58;5.10;99.90
22321;DHT22;11328;53.928;18.522;2024-03-17T10:47:28;4.80;99.90
22321;DHT22;11328;53.928;18.522;2024-03-17T10:49:55;4.90;99.90
22321;DHT22;11328;53.928;18.522;2024-03-17T10:52:23;4.90;99.90
22321;DHT22;11328;53.928;18.522;2024-03-17T10:54:54;4.80;99.90
22321;DHT22;11328;53.928;18.522;2024-03-17T11:00:12;4.70;99.90
22321;DHT22;11328;53.928;18.522;2024-03-17T11:02:45;4.90;99.90
22321;DHT22;11328;53.928;18.522;2024-03-17T11:05:20;4.70;99.90
22321;DHT22;11328;53.928;18.522;2024-03-17T11:07:51;4.60;99.90
22321;DHT22;11328;53.928;18.522;2024-03-17T11:10:23;4.70;99.90
22321;DHT22;11328;53.928;18.522;2024-03-17T11:12:57;4.70;99.90
22321;DHT22;11328;53.928;18.522;2024-03-17T11:18:39;4.30;99.90
22321;DHT22;11328;53.928;18.522;2024-03-17T11:21:06;4.20;99.90
22321;DHT22;11328;53.928;18.522;2024-03-17T11:23:41;4.20;99.90
22321;DHT22;11328;53.928;18.522;2024-03-17T11:26:08;4.20;99.90
22321;DHT22;11328;53.928;18.522;2024-03-17T11:31:35;4.10;99.90
22321;DHT22;11328;53.928;18.522;2024-03-17T11:34:04;4.00;99.90
22321;DHT22;11328;53.928;18.522;2024-03-17T11:36:34;3.80;99.90
22321;DHT22;11328;53.928;18.522;2024-03-17T11:39:05;3.60;99.90
22321;DHT22;11328;53.928;18.522;2024-03-17T11:41:37;3.70;99.90
22321;DHT22;11328;53.928;18.522;2024-03-17T11:46:45;3.60;99.90
22321;DHT22;11328;53.928;18.522;2024-03-17T11:49:38;3.40;99.90
22321;DHT22;11328;53.928;18.522;2024-03-17T11:52:16;3.40;99.90
22321;DHT22;11328;53.928;18.522;2024-03-17T11:54:44;3.60;99.90
22321;DHT22;11328;53.928;18.522;2024-03-17T11:57:14;3.50;99.90
22321;DHT22;11328;53.928;18.522;2024-03-17T11:59:48;3.50;99.90
22321;DHT22;11328;53.928;18.522;2024-03-17T12:02:25;3.50;99.90
22321;DHT22;11328;53.928;18.522;2024-03-17T12:04:54;3.50;99.90
22321;DHT22;11328;53.928;18.522;2024-03-17T12:07:23;3.60;99.90
22321;DHT22;11328;53.928;18.522;2024-03-17T12:09:51;3.40;99.90
22321;DHT22;11328;53.928;18.522;2024-03-17T12:12:24;3.40;99.90
22321;DHT22;11328;53.928;18.522;2024-03-17T12:15:01;3.50;99.90
22321;DHT22;11328;53.928;18.522;2024-03-17T12:17:28;3.50;99.90
22321;DHT22;11328;53.928;18.522;2024-03-17T12:19:55;3.40;99.90
22321;DHT22;11328;53.928;18.522;2024-03-17T12:22:23;3.40;99.90
22321;DHT22;11328;53.928;18.522;2024-03-17T12:24:54;3.50;99.90
22321;DHT22;11328;53.928;18.522;2024-03-17T12:27:23;3.40;99.90
22321;DHT22;11328;53.928;18.522;2024-03-17T12:29:54;3.60;99.90
22321;DHT22;11328;53.928;18.522;2024-03-17T12:32:25;3.80;99.90
22321;DHT22;11328;53.928;18.522;2024-03-17T12:34:56;4.00;99.90
22321;DHT22;11328;53.928;18.522;2024-03-17T12:37:26;3.90;99.90
22321;DHT22;11328;53.928;18.522;2024-03-17T12:40:00;4.10;99.90
22321;DHT22;11328;53.928;18.522;2024-03-17T12:42:27;4.10;99.90
22321;DHT22;11328;53.928;18.522;2024-03-17T12:44:56;4.10;99.90
22321;DHT22;11328;53.928;18.522;2024-03-17T12:47:28;4.10;99.90
22321;DHT22;11328;53.928;18.522;2024-03-17T12:49:56;4.20;99.90
22321;DHT22;11328;53.928;18.522;2024-03-17T12:52:25;4.30;99.90
22321;DHT22;11328;53.928;18.522;2024-03-17T12:55:01;4.30;99.90
22321;DHT22;11328;53.928;18.522;2024-03-17T12:58:09;4.40;99.90
22321;DHT22;11328;53.928;18.522;2024-03-17T13:00:58;4.40;99.90
22321;DHT22;11328;53.928;18.522;2024-03-17T13:03:31;4.20;99.90
22321;DHT22;11328;53.928;18.522;2024-03-17T13:06:01;4.20;99.90
22321;DHT22;11328;53.928;18.522;2024-03-17T13:08:36;4.20;99.90
22321;DHT22;11328;53.928;18.522;2024-03-17T13:11:03;4.30;99.90
22321;DHT22;11328;53.928;18.522;2024-03-17T13:13:35;4.30;99.90
22321;DHT22;11328;53.928;18.522;2024-03-17T13:16:01;4.30;99.90
22321;DHT22;11328;53.928;18.522;2024-03-17T13:18:28;4.10;99.90
22321;DHT22;11328;53.928;18.522;2024-03-17T13:20:54;3.80;99.90
22321;DHT22;11328;53.928;18.522;2024-03-17T13:23:24;3.40;99.90
22321;DHT22;11328;53.928;18.522;2024-03-17T13:25:51;3.50;99.90
22321;DHT22;11328;53.928;18.522;2024-03-17T13:28:17;3.60;99.90
22321;DHT22;11328;53.928;18.522;2024-03-17T13:30:43;3.60;99.90
22321;DHT22;11328;53.928;18.522;2024-03-17T13:33:13;3.50;99.90
22321;DHT22;11328;53.928;18.522;2024-03-17T13:35:41;3.60;99.90
22321;DHT22;11328;53.928;18.522;2024-03-17T13:38:08;3.50;99.90
22321;DHT22;11328;53.928;18.522;2024-03-17T13:40:40;3.50;99.90
22321;DHT22;11328;53.928;18.522;2024-03-17T13:43:09;3.50;99.90
22321;DHT22;11328;53.928;18.522;2024-03-17T13:45:40;3.50;99.90
22321;DHT22;11328;53.928;18.522;2024-03-17T13:48:09;3.70;99.90
22321;DHT22;11328;53.928;18.522;2024-03-17T13:50:39;3.60;99.90
22321;DHT22;11328;53.928;18.522;2024-03-17T13:53:11;3.60;99.90
22321;DHT22;11328;53.928;18.522;2024-03-17T13:55:37;3.80;99.90
22321;DHT22;11328;53.928;18.522;2024-03-17T13:58:04;3.70;99.90
22321;DHT22;11328;53.928;18.522;2024-03-17T14:00:31;3.70;99.90
22321;DHT22;11328;53.928;18.522;2024-03-17T14:03:00;3.70;99.90
22321;DHT22;11328;53.928;18.522;2024-03-17T14:05:26;3.50;99.90
22321;DHT22;11328;53.928;18.522;2024-03-17T14:07:55;3.40;99.90
22321;DHT22;11328;53.928;18.522;2024-03-17T14:10:23;3.20;99.90
22321;DHT22;11328;53.928;18.522;2024-03-17T14:12:51;3.10;99.90
22321;DHT22;11328;53.928;18.522;2024-03-17T14:15:19;3.00;99.90
22321;DHT22;11328;53.928;18.522;2024-03-17T14:17:47;3.10;99.90
22321;DHT22;11328;53.928;18.522;2024-03-17T14:20:15;3.20;99.90
22321;DHT22;11328;53.928;18.522;2024-03-17T14:22:44;3.30;99.90
22321;DHT22;11328;53.928;18.522;2024-03-17T14:25:17;3.20;99.90
22321;DHT22;11328;53.928;18.522;2024-03-17T14:27:51;3.10;99.90
22321;DHT22;11328;53.928;18.522;2024-03-17T14:30:19;3.30;99.90
22321;DHT22;11328;53.928;18.522;2024-03-17T14:32:45;3.40;99.90
22321;DHT22;11328;53.928;18.522;2024-03-17T14:35:14;3.30;99.90
22321;DHT22;11328;53.928;18.522;2024-03-17T14:37:46;3.20;99.90
22321;DHT22;11328;53.928;18.522;2024-03-17T14:40:17;3.20;99.90
22321;DHT22;11328;53.928;18.522;2024-03-17T14:42:52;3.10;99.90
22321;DHT22;11328;53.928;18.522;2024-03-17T14:45:19;2.90;99.90
22321;DHT22;11328;53.928;18.522;2024-03-17T14:47:46;2.90;99.90
22321;DHT22;11328;53.928;18.522;2024-03-17T14:50:12;2.90;99.90
22321;DHT22;11328;53.928;18.522;2024-03-17T14:52:39;2.90;99.90
22321;DHT22;11328;53.928;18.522;2024-03-17T14:55:09;3.00;99.90
22321;DHT22;11328;53.928;18.522;2024-03-17T14:57:39;3.00;99.90
22321;DHT22;11328;53.928;18.522;2024-03-17T15:00:13;2.90;99.90
22321;DHT22;11328;53.928;18.522;2024-03-17T15:02:46;2.80;99.90
22321;DHT22;11328;53.928;18.522;2024-03-17T15:05:13;2.70;99.90
22321;DHT22;11328;53.928;18.522;2024-03-17T15:07:40;2.70;99.90
22321;DHT22;11328;53.928;18.522;2024-03-17T15:10:07;2.60;99.90
22321;DHT22;11328;53.928;18.522;2024-03-17T15:12:34;2.60;99.90
22321;DHT22;11328;53.928;18.522;2024-03-17T15:15:00;2.50;99.90
22321;DHT22;11328;53.928;18.522;2024-03-17T15:17:26;2.50;99.90
22321;DHT22;11328;53.928;18.522;2024-03-17T15:19:53;2.40;99.90
22321;DHT22;11328;53.928;18.522;2024-03-17T15:22:20;2.40;99.90
22321;DHT22;11328;53.928;18.522;2024-03-17T15:24:47;2.60;99.90
22321;DHT22;11328;53.928;18.522;2024-03-17T15:27:14;2.70;99.90
22321;DHT22;11328;53.928;18.522;2024-03-17T15:29:41;2.50;99.90
22321;DHT22;11328;53.928;18.522;2024-03-17T15:32:07;2.50;99.90
22321;DHT22;11328;53.928;18.522;2024-03-17T15:34:33;2.50;99.90
22321;DHT22;11328;53.928;18.522;2024-03-17T15:37:03;2.50;99.90
22321;DHT22;11328;53.928;18.522;2024-03-17T15:39:31;2.60;99.90
22321;DHT22;11328;53.928;18.522;2024-03-17T15:41:57;2.60;99.90
22321;DHT22;11328;53.928;18.522;2024-03-17T15:44:23;2.60;99.90
22321;DHT22;11328;53.928;18.522;2024-03-17T15:46:49;2.40;99.90
22321;DHT22;11328;53.928;18.522;2024-03-17T15:49:16;2.40;99.90
22321;DHT22;11328;53.928;18.522;2024-03-17T15:51:42;2.50;99.90
22321;DHT22;11328;53.928;18.522;2024-03-17T15:54:08;2.60;99.90
22321;DHT22;11328;53.928;18.522;2024-03-17T15:56:34;2.80;99.90